createdAt,value
2018-07-13T00:00:10.257Z,19.13
2018-07-13T00:01:10.254Z,19.05
2018-07-13T00:02:10.249Z,19.01
2018-07-13T00:03:10.248Z,19.06
2018-07-13T00:04:10.244Z,19.02
2018-07-13T00:05:10.296Z,19.07
2018-07-13T00:06:10.238Z,19.06
2018-07-13T00:07:10.236Z,19.01
2018-07-13T00:08:10.246Z,18.93
2018-07-13T00:09:10.234Z,18.93
2018-07-13T00:10:10.227Z,18.89
2018-07-13T00:11:10.223Z,18.99
2018-07-13T00:12:10.217Z,18.97
2018-07-13T00:13:10.216Z,18.94
2018-07-13T00:14:10.211Z,18.89
2018-07-13T00:15:10.262Z,18.86
2018-07-13T00:16:10.205Z,18.82
2018-07-13T00:17:10.207Z,18.72
2018-07-13T00:18:10.209Z,18.71
2018-07-13T00:19:10.200Z,18.74
2018-07-13T00:20:10.202Z,18.66
2018-07-13T00:21:10.198Z,18.68
2018-07-13T00:22:10.185Z,18.66
2018-07-13T00:23:10.188Z,18.72
2018-07-13T00:24:10.179Z,18.79
2018-07-13T00:25:10.235Z,18.75
2018-07-13T00:26:10.172Z,18.75
2018-07-13T00:27:10.168Z,18.72
2018-07-13T00:28:10.166Z,18.68
2018-07-13T00:29:10.165Z,18.74
2018-07-13T00:30:10.173Z,18.62
2018-07-13T00:31:10.152Z,18.59
2018-07-13T00:32:10.158Z,18.64
2018-07-13T00:33:10.153Z,18.68
2018-07-13T00:34:10.143Z,18.54
2018-07-13T00:35:10.182Z,18.62
2018-07-13T00:36:10.137Z,18.75
2018-07-13T00:37:10.138Z,18.76
2018-07-13T00:38:10.131Z,18.71
2018-07-13T00:39:10.140Z,18.79
2018-07-13T00:40:10.127Z,18.66
2018-07-13T00:41:10.124Z,18.66
2018-07-13T00:42:10.114Z,18.62
2018-07-13T00:43:10.118Z,18.56
2018-07-13T00:44:10.116Z,18.66
2018-07-13T00:45:10.167Z,18.53
2018-07-13T00:46:10.109Z,18.57
2018-07-13T00:47:10.107Z,18.62
2018-07-13T00:48:10.094Z,18.65
2018-07-13T00:49:10.090Z,18.60
2018-07-13T00:50:10.100Z,18.53
2018-07-13T00:51:10.084Z,18.57
2018-07-13T00:52:10.082Z,18.54
2018-07-13T00:53:10.082Z,18.60
2018-07-13T00:54:10.078Z,18.62
2018-07-13T00:55:10.079Z,18.64
2018-07-13T00:56:10.071Z,18.64
2018-07-13T00:57:10.077Z,18.56
2018-07-13T00:58:10.060Z,18.56
2018-07-13T00:59:10.079Z,18.64
2018-07-13T01:00:10.072Z,18.54
2018-07-13T01:01:10.049Z,18.53
2018-07-13T01:02:10.055Z,18.54
2018-07-13T01:03:10.042Z,18.49
2018-07-13T01:04:10.037Z,18.47
2018-07-13T01:05:10.044Z,18.50
2018-07-13T01:06:10.033Z,18.47
2018-07-13T01:07:10.027Z,18.42
2018-07-13T01:08:10.024Z,18.34
2018-07-13T01:09:10.028Z,18.38
2018-07-13T01:10:10.020Z,18.42
2018-07-13T01:11:10.023Z,18.34
2018-07-13T01:12:10.010Z,18.39
2018-07-13T01:13:10.007Z,18.32
2018-07-13T01:14:10.006Z,18.36
2018-07-13T01:15:10.012Z,18.28
2018-07-13T01:16:10.006Z,18.31
2018-07-13T01:17:09.997Z,18.31
2018-07-13T01:18:09.990Z,18.26
2018-07-13T01:19:10.002Z,18.31
2018-07-13T01:20:09.981Z,18.32
2018-07-13T01:21:09.979Z,18.36
2018-07-13T01:22:10.018Z,18.34
2018-07-13T01:23:10.054Z,18.21
2018-07-13T01:24:09.969Z,18.17
2018-07-13T01:25:10.104Z,18.19
2018-07-13T01:26:09.965Z,18.19
2018-07-13T01:27:10.028Z,18.10
2018-07-13T01:28:10.020Z,18.09
2018-07-13T01:29:09.954Z,18.10
2018-07-13T01:30:09.947Z,18.09
2018-07-13T01:31:09.943Z,18.07
2018-07-13T01:32:09.992Z,18.09
2018-07-13T01:33:09.937Z,18.10
2018-07-13T01:34:09.933Z,18.05
2018-07-13T01:35:09.929Z,18.14
2018-07-13T01:36:09.926Z,18.10
2018-07-13T01:37:09.929Z,18.05
2018-07-13T01:38:09.918Z,18.11
2018-07-13T01:39:09.914Z,18.05
2018-07-13T01:40:09.911Z,18.07
2018-07-13T01:41:09.909Z,17.99
2018-07-13T01:42:09.911Z,18.05
2018-07-13T01:43:09.898Z,17.96
2018-07-13T01:44:09.907Z,17.94
2018-07-13T01:45:09.892Z,17.99
2018-07-13T01:46:09.894Z,17.84
2018-07-13T01:47:09.889Z,17.95
2018-07-13T01:48:09.885Z,17.96
2018-07-13T01:49:09.884Z,17.92
2018-07-13T01:50:09.886Z,17.89
2018-07-13T01:51:09.878Z,17.84
2018-07-13T01:52:09.920Z,17.94
2018-07-13T01:53:09.865Z,17.95
2018-07-13T01:54:09.866Z,17.86
2018-07-13T01:55:09.868Z,17.95
2018-07-13T01:56:09.875Z,17.92
2018-07-13T01:57:09.855Z,17.86
2018-07-13T01:58:09.853Z,17.89
2018-07-13T01:59:09.839Z,17.81
2018-07-13T02:00:09.837Z,17.77
2018-07-13T02:01:09.844Z,17.73
2018-07-13T02:02:09.891Z,17.81
2018-07-13T02:03:09.824Z,17.79
2018-07-13T02:04:09.825Z,17.87
2018-07-13T02:05:09.818Z,17.91
2018-07-13T02:06:09.813Z,17.83
2018-07-13T02:07:09.809Z,17.89
2018-07-13T02:08:09.818Z,17.87
2018-07-13T02:09:09.837Z,17.77
2018-07-13T02:10:09.796Z,17.77
2018-07-13T02:11:09.798Z,17.70
2018-07-13T02:12:09.787Z,17.80
2018-07-13T02:13:09.789Z,17.71
2018-07-13T02:14:09.789Z,17.77
2018-07-13T02:15:09.776Z,17.73
2018-07-13T02:16:09.788Z,17.73
2018-07-13T02:17:09.774Z,17.74
2018-07-13T02:18:09.765Z,17.81
2018-07-13T02:19:09.805Z,17.74
2018-07-13T02:20:09.756Z,17.70
2018-07-13T02:21:09.757Z,17.73
2018-07-13T02:22:09.749Z,17.65
2018-07-13T02:23:09.744Z,17.76
2018-07-13T02:24:09.744Z,17.60
2018-07-13T02:25:09.736Z,17.77
2018-07-13T02:26:09.740Z,17.71
2018-07-13T02:27:09.737Z,17.66
2018-07-13T02:28:09.723Z,17.66
2018-07-13T02:29:09.771Z,17.55
2018-07-13T02:30:09.727Z,17.60
2018-07-13T02:31:09.712Z,17.53
2018-07-13T02:32:09.709Z,17.53
2018-07-13T02:33:09.713Z,17.57
2018-07-13T02:34:09.705Z,17.49
2018-07-13T02:35:09.700Z,17.47
2018-07-13T02:36:09.706Z,17.46
2018-07-13T02:37:09.688Z,17.38
2018-07-13T02:38:09.694Z,17.54
2018-07-13T02:39:09.792Z,17.51
2018-07-13T02:40:09.678Z,17.58
2018-07-13T02:41:09.681Z,17.45
2018-07-13T02:42:09.669Z,17.49
2018-07-13T02:43:09.679Z,17.43
2018-07-13T02:44:09.661Z,17.43
2018-07-13T02:45:09.656Z,17.54
2018-07-13T02:46:09.694Z,17.51
2018-07-13T02:47:09.656Z,17.35
2018-07-13T02:48:09.645Z,17.42
2018-07-13T02:49:09.640Z,17.33
2018-07-13T02:50:09.637Z,17.30
2018-07-13T02:51:09.632Z,17.27
2018-07-13T02:52:09.627Z,17.27
2018-07-13T02:53:09.629Z,17.36
2018-07-13T02:54:09.621Z,17.24
2018-07-13T02:55:09.616Z,17.28
2018-07-13T02:56:09.620Z,17.33
2018-07-13T02:57:09.609Z,17.28
2018-07-13T02:58:09.604Z,17.32
2018-07-13T02:59:09.607Z,17.45
2018-07-13T03:00:09.608Z,17.32
2018-07-13T03:01:09.598Z,17.24
2018-07-13T03:02:09.590Z,17.22
2018-07-13T03:03:09.641Z,17.12
2018-07-13T03:04:09.588Z,17.22
2018-07-13T03:05:09.573Z,17.12
2018-07-13T03:06:09.571Z,17.03
2018-07-13T03:07:09.570Z,17.02
2018-07-13T03:08:09.563Z,16.96
2018-07-13T03:09:09.556Z,17.03
2018-07-13T03:10:09.568Z,16.96
2018-07-13T03:11:09.548Z,16.98
2018-07-13T03:12:09.543Z,16.99
2018-07-13T03:13:09.574Z,16.92
2018-07-13T03:14:09.536Z,16.98
2018-07-13T03:15:09.534Z,17.02
2018-07-13T03:16:09.535Z,16.98
2018-07-13T03:17:09.522Z,16.96
2018-07-13T03:18:09.519Z,16.96
2018-07-13T03:19:09.551Z,16.95
2018-07-13T03:20:09.509Z,17.00
2018-07-13T03:21:09.508Z,16.99
2018-07-13T03:22:09.537Z,16.92
2018-07-13T03:23:09.538Z,16.95
2018-07-13T03:24:09.493Z,16.99
2018-07-13T03:25:09.487Z,16.91
2018-07-13T03:26:09.485Z,16.91
2018-07-13T03:27:09.493Z,16.91
2018-07-13T03:28:09.487Z,16.87
2018-07-13T03:29:09.470Z,16.92
2018-07-13T03:30:09.488Z,16.87
2018-07-13T03:31:09.487Z,16.82
2018-07-13T03:32:09.464Z,16.87
2018-07-13T03:33:09.456Z,16.85
2018-07-13T03:34:09.450Z,16.87
2018-07-13T03:35:09.455Z,16.90
2018-07-13T03:36:09.448Z,16.90
2018-07-13T03:37:09.440Z,16.96
2018-07-13T03:38:09.440Z,16.87
2018-07-13T03:39:09.427Z,16.82
2018-07-13T03:40:09.455Z,16.88
2018-07-13T03:41:09.428Z,16.81
2018-07-13T03:42:09.417Z,16.80
2018-07-13T03:43:09.413Z,16.72
2018-07-13T03:44:09.413Z,16.80
2018-07-13T03:45:09.400Z,16.73
2018-07-13T03:46:09.397Z,16.73
2018-07-13T03:47:09.402Z,16.78
2018-07-13T03:48:09.390Z,16.77
2018-07-13T03:49:09.389Z,16.77
2018-07-13T03:50:09.382Z,16.73
2018-07-13T03:51:09.384Z,16.73
2018-07-13T03:52:09.371Z,16.72
2018-07-13T03:53:09.368Z,16.66
2018-07-13T03:54:09.408Z,16.77
2018-07-13T03:55:09.360Z,16.85
2018-07-13T03:56:09.354Z,16.87
2018-07-13T03:57:09.371Z,16.82
2018-07-13T03:58:09.348Z,16.85
2018-07-13T03:59:09.341Z,16.82
2018-07-13T04:00:09.341Z,16.84
2018-07-13T04:01:09.338Z,16.82
2018-07-13T04:02:09.339Z,16.69
2018-07-13T04:03:09.323Z,16.82
2018-07-13T04:04:09.327Z,16.78
2018-07-13T04:05:09.313Z,16.77
2018-07-13T04:06:09.313Z,16.75
2018-07-13T04:07:09.551Z,16.81
2018-07-13T04:08:09.302Z,16.91
2018-07-13T04:09:09.295Z,16.95
2018-07-13T04:10:09.350Z,16.87
2018-07-13T04:11:09.300Z,16.85
2018-07-13T04:12:09.294Z,16.82
2018-07-13T04:13:09.278Z,16.82
2018-07-13T04:14:09.276Z,16.78
2018-07-13T04:15:09.269Z,16.91
2018-07-13T04:16:09.262Z,16.90
2018-07-13T04:17:09.267Z,16.85
2018-07-13T04:18:09.260Z,16.85
2018-07-13T04:19:09.257Z,16.90
2018-07-13T04:20:09.248Z,16.90
2018-07-13T04:21:09.249Z,16.99
2018-07-13T04:22:09.238Z,16.99
2018-07-13T04:23:09.234Z,16.96
2018-07-13T04:24:09.250Z,16.96
2018-07-13T04:25:09.227Z,16.96
2018-07-13T04:26:09.220Z,17.06
2018-07-13T04:27:09.216Z,17.36
2018-07-13T04:28:09.214Z,18.25
2018-07-13T04:29:09.207Z,18.91
2018-07-13T04:30:09.214Z,19.58
2018-07-13T04:31:09.207Z,20.04
2018-07-13T04:32:09.207Z,20.61
2018-07-13T04:33:09.203Z,21.08
2018-07-13T04:34:09.283Z,21.48
2018-07-13T04:35:09.182Z,21.77
2018-07-13T04:36:09.179Z,22.06
2018-07-13T04:37:09.187Z,22.36
2018-07-13T04:38:09.176Z,22.70
2018-07-13T04:39:09.180Z,23.01
2018-07-13T04:40:09.180Z,23.19
2018-07-13T04:41:09.262Z,23.35
2018-07-13T04:42:09.171Z,23.57
2018-07-13T04:43:09.183Z,23.72
2018-07-13T04:44:09.171Z,23.93
2018-07-13T04:45:09.171Z,24.19
2018-07-13T04:46:09.175Z,24.34
2018-07-13T04:47:09.169Z,24.56
2018-07-13T04:48:09.172Z,24.75
2018-07-13T04:49:09.174Z,24.98
2018-07-13T04:50:09.242Z,25.12
2018-07-13T04:51:09.175Z,25.23
2018-07-13T04:52:09.180Z,25.35
2018-07-13T04:53:09.173Z,25.39
2018-07-13T04:54:09.175Z,25.42
2018-07-13T04:55:09.177Z,25.59
2018-07-13T04:56:09.179Z,25.67
2018-07-13T04:57:09.188Z,25.69
2018-07-13T04:58:09.198Z,25.72
2018-07-13T04:59:09.200Z,25.96
2018-07-13T05:00:09.191Z,26.04
2018-07-13T05:01:09.195Z,26.20
2018-07-13T05:02:09.199Z,26.21
2018-07-13T05:03:09.207Z,26.41
2018-07-13T05:04:09.207Z,26.38
2018-07-13T05:05:09.212Z,26.09
2018-07-13T05:06:09.265Z,26.04
2018-07-13T05:07:09.221Z,26.24
2018-07-13T05:08:09.225Z,26.41
2018-07-13T05:09:09.229Z,26.57
2018-07-13T05:10:09.234Z,26.81
2018-07-13T05:11:09.239Z,26.90
2018-07-13T05:12:09.247Z,26.94
2018-07-13T05:13:09.247Z,27.08
2018-07-13T05:14:09.254Z,27.09
2018-07-13T05:15:09.258Z,27.16
2018-07-13T05:16:09.267Z,27.23
2018-07-13T05:17:09.267Z,27.21
2018-07-13T05:18:09.278Z,27.16
2018-07-13T05:19:09.284Z,27.25
2018-07-13T05:20:09.286Z,27.43
2018-07-13T05:21:09.286Z,27.49
2018-07-13T05:22:09.296Z,27.35
2018-07-13T05:23:09.306Z,27.30
2018-07-13T05:24:09.302Z,27.20
2018-07-13T05:25:09.309Z,27.06
2018-07-13T05:26:09.328Z,26.97
2018-07-13T05:27:09.317Z,26.88
2018-07-13T05:28:09.316Z,26.57
2018-07-13T05:29:09.318Z,26.38
2018-07-13T05:30:09.322Z,26.20
2018-07-13T05:31:09.324Z,25.81
2018-07-13T05:32:09.328Z,25.72
2018-07-13T05:33:09.342Z,25.49
2018-07-13T05:34:09.334Z,25.39
2018-07-13T05:35:09.343Z,25.27
2018-07-13T05:36:09.338Z,25.20
2018-07-13T05:37:09.341Z,24.92
2018-07-13T05:38:09.350Z,24.87
2018-07-13T05:39:09.348Z,24.87
2018-07-13T05:40:09.347Z,24.70
2018-07-13T05:41:09.352Z,24.56
2018-07-13T05:42:09.349Z,24.44
2018-07-13T05:43:09.354Z,24.36
2018-07-13T05:44:09.351Z,24.36
2018-07-13T05:45:09.352Z,24.29
2018-07-13T05:46:09.358Z,24.15
2018-07-13T05:47:09.368Z,24.14
2018-07-13T05:48:09.353Z,24.00
2018-07-13T05:49:09.362Z,23.97
2018-07-13T05:50:09.358Z,23.86
2018-07-13T05:51:09.370Z,23.82
2018-07-13T05:52:09.368Z,23.84
2018-07-13T05:53:09.374Z,23.62
2018-07-13T05:54:09.360Z,23.54
2018-07-13T05:55:09.370Z,23.45
2018-07-13T05:56:09.360Z,23.39
2018-07-13T05:57:09.363Z,23.44
2018-07-13T05:58:09.375Z,23.38
2018-07-13T05:59:09.367Z,23.42
2018-07-13T06:00:09.372Z,23.50
2018-07-13T06:01:09.364Z,23.53
2018-07-13T06:02:09.369Z,23.60
2018-07-13T06:03:09.368Z,23.63
2018-07-13T06:04:09.364Z,23.62
2018-07-13T06:05:09.364Z,23.62
2018-07-13T06:06:09.365Z,23.60
2018-07-13T06:07:09.375Z,23.60
2018-07-13T06:08:09.366Z,23.62
2018-07-13T06:09:09.370Z,23.60
2018-07-13T06:10:09.370Z,23.63
2018-07-13T06:11:09.367Z,23.57
2018-07-13T06:12:09.367Z,23.56
2018-07-13T06:13:09.369Z,23.39
2018-07-13T06:14:09.365Z,23.50
2018-07-13T06:15:09.418Z,23.44
2018-07-13T06:16:09.367Z,23.60
2018-07-13T06:17:09.368Z,23.59
2018-07-13T06:18:09.374Z,23.67
2018-07-13T06:19:09.376Z,23.60
2018-07-13T06:20:09.378Z,23.67
2018-07-13T06:21:09.368Z,23.71
2018-07-13T06:22:09.374Z,23.74
2018-07-13T06:23:09.373Z,23.75
2018-07-13T06:24:09.385Z,23.74
2018-07-13T06:25:09.372Z,23.72
2018-07-13T06:26:09.376Z,23.93
2018-07-13T06:27:09.369Z,23.97
2018-07-13T06:28:09.381Z,24.04
2018-07-13T06:29:09.379Z,24.09
2018-07-13T06:30:09.392Z,24.05
2018-07-13T06:31:09.369Z,24.14
2018-07-13T06:32:09.380Z,24.18
2018-07-13T06:33:09.372Z,24.15
2018-07-13T06:34:09.381Z,24.23
2018-07-13T06:35:09.376Z,24.24
2018-07-13T06:36:09.385Z,24.19
2018-07-13T06:37:09.382Z,24.19
2018-07-13T06:38:09.378Z,24.18
2018-07-13T06:39:09.404Z,24.31
2018-07-13T06:40:09.381Z,24.24
2018-07-13T06:41:09.374Z,24.18
2018-07-13T06:42:09.373Z,24.24
2018-07-13T06:43:09.372Z,24.29
2018-07-13T06:44:09.383Z,24.26
2018-07-13T06:45:09.374Z,24.33
2018-07-13T06:46:09.375Z,24.36
2018-07-13T06:47:09.374Z,24.42
2018-07-13T06:48:09.378Z,24.42
2018-07-13T06:49:09.387Z,24.49
2018-07-13T06:50:09.375Z,24.59
2018-07-13T06:51:09.384Z,24.52
2018-07-13T06:52:09.386Z,24.64
2018-07-13T06:53:09.383Z,24.55
2018-07-13T06:54:09.378Z,24.70
2018-07-13T06:55:09.385Z,24.75
2018-07-13T06:56:09.380Z,24.68
2018-07-13T06:57:09.379Z,24.79
2018-07-13T06:58:09.394Z,24.83
2018-07-13T06:59:09.383Z,24.92
2018-07-13T07:00:09.381Z,24.94
2018-07-13T07:01:09.391Z,25.01
2018-07-13T07:02:09.383Z,25.02
2018-07-13T07:03:09.383Z,25.07
2018-07-13T07:04:09.398Z,25.04
2018-07-13T07:05:09.384Z,25.22
2018-07-13T07:06:09.389Z,25.16
2018-07-13T07:07:09.392Z,25.19
2018-07-13T07:08:09.389Z,25.20
2018-07-13T07:09:09.398Z,25.24
2018-07-13T07:10:09.401Z,25.24
2018-07-13T07:11:09.398Z,25.34
2018-07-13T07:12:09.390Z,25.29
2018-07-13T07:13:09.400Z,25.30
2018-07-13T07:14:09.391Z,25.31
2018-07-13T07:15:09.496Z,25.29
2018-07-13T07:16:09.406Z,25.39
2018-07-13T07:17:09.486Z,25.35
2018-07-13T07:18:09.396Z,25.38
2018-07-13T07:19:09.406Z,25.48
2018-07-13T07:20:09.398Z,25.56
2018-07-13T07:21:09.400Z,25.51
2018-07-13T07:22:09.399Z,25.56
2018-07-13T07:23:09.399Z,25.69
2018-07-13T07:24:09.407Z,25.71
2018-07-13T07:25:09.403Z,25.74
2018-07-13T07:26:09.405Z,25.79
2018-07-13T07:27:09.405Z,25.72
2018-07-13T07:28:09.407Z,25.71
2018-07-13T07:29:09.420Z,25.78
2018-07-13T07:30:09.422Z,25.72
2018-07-13T07:31:09.412Z,25.78
2018-07-13T07:32:09.421Z,25.66
2018-07-13T07:33:09.413Z,25.75
2018-07-13T07:34:09.414Z,25.72
2018-07-13T07:35:09.416Z,25.81
2018-07-13T07:36:09.422Z,25.86
2018-07-13T07:37:09.421Z,25.86
2018-07-13T07:38:09.419Z,25.97
2018-07-13T07:39:09.423Z,26.01
2018-07-13T07:40:09.423Z,26.04
2018-07-13T07:41:09.424Z,26.08
2018-07-13T07:42:09.426Z,26.12
2018-07-13T07:43:09.432Z,26.13
2018-07-13T07:44:09.428Z,26.23
2018-07-13T07:45:09.430Z,26.21
2018-07-13T07:46:09.435Z,26.20
2018-07-13T07:47:09.437Z,26.27
2018-07-13T07:48:09.436Z,26.12
2018-07-13T07:49:09.441Z,26.21
2018-07-13T07:50:09.440Z,26.24
2018-07-13T07:51:09.442Z,26.24
2018-07-13T07:52:09.442Z,26.21
2018-07-13T07:53:09.459Z,26.31
2018-07-13T07:54:09.458Z,26.31
2018-07-13T07:55:09.454Z,26.44
2018-07-13T07:56:09.448Z,26.36
2018-07-13T07:57:09.461Z,26.47
2018-07-13T07:58:09.452Z,26.59
2018-07-13T07:59:09.456Z,26.65
2018-07-13T08:00:09.470Z,26.61
2018-07-13T08:01:09.457Z,26.73
2018-07-13T08:02:09.470Z,26.78
2018-07-13T08:03:09.475Z,26.68
2018-07-13T08:04:09.468Z,26.73
2018-07-13T08:05:09.466Z,26.72
2018-07-13T08:06:09.577Z,26.76
2018-07-13T08:07:09.969Z,26.81
2018-07-13T08:08:09.471Z,26.78
2018-07-13T08:09:09.475Z,26.87
2018-07-13T08:10:09.480Z,27.02
2018-07-13T08:11:09.477Z,27.08
2018-07-13T08:12:09.489Z,27.02
2018-07-13T08:13:09.484Z,27.01
2018-07-13T08:14:09.660Z,27.05
2018-07-13T08:15:09.491Z,27.11
2018-07-13T08:16:09.507Z,27.11
2018-07-13T08:17:09.525Z,27.06
2018-07-13T08:18:09.508Z,27.06
2018-07-13T08:19:09.506Z,27.08
2018-07-13T08:20:09.506Z,27.11
2018-07-13T08:21:09.508Z,27.06
2018-07-13T08:22:09.504Z,27.09
2018-07-13T08:23:09.508Z,27.11
2018-07-13T08:24:09.509Z,27.08
2018-07-13T08:25:09.519Z,27.06
2018-07-13T08:26:09.511Z,27.12
2018-07-13T08:27:09.516Z,27.13
2018-07-13T08:28:09.517Z,27.24
2018-07-13T08:29:09.530Z,27.23
2018-07-13T08:30:09.520Z,27.23
2018-07-13T08:31:09.532Z,27.13
2018-07-13T08:32:09.618Z,27.31
2018-07-13T08:33:09.533Z,27.33
2018-07-13T08:34:09.638Z,27.30
2018-07-13T08:35:09.536Z,27.35
2018-07-13T08:36:09.535Z,27.28
2018-07-13T08:37:09.538Z,27.34
2018-07-13T08:38:09.540Z,27.38
2018-07-13T08:39:09.544Z,27.38
2018-07-13T08:40:09.546Z,27.39
2018-07-13T08:41:09.547Z,27.39
2018-07-13T08:42:09.550Z,27.48
2018-07-13T08:43:09.553Z,27.25
2018-07-13T08:44:09.665Z,27.31
2018-07-13T08:45:09.562Z,27.27
2018-07-13T08:46:09.565Z,27.28
2018-07-13T08:47:09.576Z,27.21
2018-07-13T08:48:09.565Z,27.24
2018-07-13T08:49:09.590Z,27.35
2018-07-13T08:50:09.572Z,27.24
2018-07-13T08:51:09.583Z,27.25
2018-07-13T08:52:09.580Z,27.31
2018-07-13T08:53:09.581Z,27.46
2018-07-13T08:54:09.585Z,27.39
2018-07-13T08:55:09.585Z,27.58
2018-07-13T08:56:09.623Z,27.61
2018-07-13T08:57:09.600Z,27.69
2018-07-13T08:58:09.593Z,27.77
2018-07-13T08:59:09.601Z,27.81
2018-07-13T09:00:09.600Z,27.98
2018-07-13T09:01:09.605Z,27.99
2018-07-13T09:02:09.608Z,28.13
2018-07-13T09:03:09.616Z,28.13
2018-07-13T09:04:09.632Z,28.14
2018-07-13T09:05:09.615Z,28.08
2018-07-13T09:06:09.626Z,28.14
2018-07-13T09:07:09.635Z,28.11
2018-07-13T09:08:09.630Z,28.11
2018-07-13T09:09:09.634Z,28.08
2018-07-13T09:10:09.631Z,28.11
2018-07-13T09:11:09.644Z,28.01
2018-07-13T09:12:09.633Z,27.99
2018-07-13T09:13:09.644Z,28.02
2018-07-13T09:14:09.642Z,27.93
2018-07-13T09:15:09.643Z,27.81
2018-07-13T09:16:09.655Z,27.95
2018-07-13T09:17:09.693Z,28.02
2018-07-13T09:18:09.716Z,28.05
2018-07-13T09:19:09.662Z,28.17
2018-07-13T09:20:09.659Z,28.23
2018-07-13T09:21:09.662Z,28.25
2018-07-13T09:22:09.670Z,28.21
2018-07-13T09:23:09.682Z,28.30
2018-07-13T09:24:09.699Z,28.27
2018-07-13T09:25:09.673Z,28.25
2018-07-13T09:26:09.676Z,28.36
2018-07-13T09:27:09.694Z,28.42
2018-07-13T09:28:09.682Z,28.43
2018-07-13T09:29:09.696Z,28.48
2018-07-13T09:30:09.692Z,28.50
2018-07-13T09:31:09.703Z,28.54
2018-07-13T09:32:09.700Z,28.58
2018-07-13T09:33:09.727Z,28.65
2018-07-13T09:34:09.701Z,28.69
2018-07-13T09:35:09.712Z,28.70
2018-07-13T09:36:09.709Z,28.80
2018-07-13T09:37:09.724Z,28.88
2018-07-13T09:38:09.720Z,28.87
2018-07-13T09:39:09.723Z,28.79
2018-07-13T09:40:09.729Z,28.76
2018-07-13T09:41:09.731Z,28.87
2018-07-13T09:42:09.729Z,28.80
2018-07-13T09:43:09.741Z,29.07
2018-07-13T09:44:09.740Z,29.05
2018-07-13T09:45:09.741Z,29.10
2018-07-13T09:46:09.748Z,29.12
2018-07-13T09:47:09.752Z,29.17
2018-07-13T09:48:09.753Z,29.26
2018-07-13T09:49:09.753Z,29.30
2018-07-13T09:50:09.762Z,29.29
2018-07-13T09:51:09.767Z,29.27
2018-07-13T09:52:09.764Z,29.37
2018-07-13T09:53:09.775Z,29.48
2018-07-13T09:54:09.909Z,29.52
2018-07-13T09:55:09.783Z,29.33
2018-07-13T09:56:09.788Z,29.29
2018-07-13T09:57:09.787Z,29.23
2018-07-13T09:58:09.793Z,29.07
2018-07-13T09:59:09.795Z,29.08
2018-07-13T10:00:09.801Z,29.07
2018-07-13T10:01:09.796Z,29.08
2018-07-13T10:02:09.814Z,29.08
2018-07-13T10:03:09.811Z,29.11
2018-07-13T10:04:09.808Z,29.10
2018-07-13T10:05:09.816Z,29.05
2018-07-13T10:06:09.814Z,29.02
2018-07-13T10:07:09.824Z,29.10
2018-07-13T10:08:09.824Z,29.02
2018-07-13T10:09:09.827Z,29.08
2018-07-13T10:10:09.832Z,29.11
2018-07-13T10:11:09.836Z,29.21
2018-07-13T10:12:09.839Z,29.14
2018-07-13T10:13:09.848Z,29.21
2018-07-13T10:14:09.862Z,29.26
2018-07-13T10:15:09.850Z,29.35
2018-07-13T10:16:09.866Z,29.51
2018-07-13T10:17:09.867Z,29.54
2018-07-13T10:18:09.864Z,29.45
2018-07-13T10:19:09.875Z,29.55
2018-07-13T10:20:09.869Z,29.49
2018-07-13T10:21:09.886Z,29.55
2018-07-13T10:22:09.881Z,29.37
2018-07-13T10:23:09.882Z,29.41
2018-07-13T10:24:09.893Z,29.37
2018-07-13T10:25:09.893Z,29.42
2018-07-13T10:26:09.893Z,29.37
2018-07-13T10:27:09.912Z,29.35
2018-07-13T10:28:09.898Z,29.44
2018-07-13T10:29:09.943Z,29.60
2018-07-13T10:30:09.911Z,29.58
2018-07-13T10:31:09.926Z,29.63
2018-07-13T10:32:09.920Z,29.74
2018-07-13T10:33:09.918Z,29.71
2018-07-13T10:34:09.930Z,29.79
2018-07-13T10:35:09.931Z,29.81
2018-07-13T10:36:09.935Z,29.71
2018-07-13T10:37:09.944Z,29.85
2018-07-13T10:38:09.943Z,29.91
2018-07-13T10:39:09.947Z,29.82
2018-07-13T10:40:09.954Z,29.78
2018-07-13T10:41:09.955Z,29.71
2018-07-13T10:42:09.968Z,29.64
2018-07-13T10:43:09.964Z,29.58
2018-07-13T10:44:09.974Z,29.45
2018-07-13T10:45:09.975Z,29.48
2018-07-13T10:46:09.980Z,29.11
2018-07-13T10:47:09.978Z,29.25
2018-07-13T10:48:09.984Z,29.21
2018-07-13T10:49:09.990Z,29.11
2018-07-13T10:50:09.993Z,29.08
2018-07-13T10:51:10.001Z,29.07
2018-07-13T10:52:10.009Z,29.26
2018-07-13T10:53:10.004Z,29.26
2018-07-13T10:54:10.013Z,29.48
2018-07-13T10:55:10.013Z,29.60
2018-07-13T10:56:10.018Z,29.67
2018-07-13T10:57:10.024Z,29.67
2018-07-13T10:58:10.032Z,29.62
2018-07-13T10:59:10.035Z,29.70
2018-07-13T11:00:10.044Z,29.84
2018-07-13T11:01:10.050Z,29.86
2018-07-13T11:02:10.046Z,30.04
2018-07-13T11:03:10.055Z,30.04
2018-07-13T11:04:10.060Z,30.03
2018-07-13T11:05:10.055Z,30.03
2018-07-13T11:06:10.066Z,30.16
2018-07-13T11:07:10.065Z,30.13
2018-07-13T11:08:10.131Z,30.04
2018-07-13T11:09:10.081Z,29.95
2018-07-13T11:10:10.077Z,29.86
2018-07-13T11:11:10.080Z,29.82
2018-07-13T11:12:10.087Z,29.63
2018-07-13T11:13:10.099Z,29.55
2018-07-13T11:14:10.103Z,29.62
2018-07-13T11:15:10.103Z,29.63
2018-07-13T11:16:10.114Z,29.74
2018-07-13T11:17:10.107Z,29.88
2018-07-13T11:18:10.118Z,29.99
2018-07-13T11:19:10.115Z,30.10
2018-07-13T11:20:10.122Z,30.01
2018-07-13T11:21:10.130Z,29.81
2018-07-13T11:22:10.139Z,30.00
2018-07-13T11:23:10.134Z,30.03
2018-07-13T11:24:10.181Z,30.01
2018-07-13T11:25:10.147Z,30.08
2018-07-13T11:26:10.154Z,30.07
2018-07-13T11:27:10.150Z,30.21
2018-07-13T11:28:10.153Z,30.23
2018-07-13T11:29:10.158Z,30.32
2018-07-13T11:30:10.165Z,30.42
2018-07-13T11:31:10.168Z,30.45
2018-07-13T11:32:10.173Z,30.53
2018-07-13T11:33:10.191Z,30.67
2018-07-13T11:34:10.182Z,30.64
2018-07-13T11:35:10.200Z,30.70
2018-07-13T11:36:10.194Z,30.75
2018-07-13T11:37:10.462Z,30.78
2018-07-13T11:38:10.209Z,30.85
2018-07-13T11:39:10.206Z,30.73
2018-07-13T11:40:10.209Z,30.75
2018-07-13T11:41:10.214Z,30.73
2018-07-13T11:42:10.223Z,30.70
2018-07-13T11:43:10.223Z,30.59
2018-07-13T11:44:10.261Z,30.75
2018-07-13T11:45:10.233Z,30.68
2018-07-13T11:46:10.247Z,30.68
2018-07-13T11:47:10.243Z,30.79
2018-07-13T11:48:10.247Z,30.91
2018-07-13T11:49:10.257Z,30.75
2018-07-13T11:50:10.266Z,30.34
2018-07-13T11:51:10.263Z,30.44
2018-07-13T11:52:10.319Z,30.49
2018-07-13T11:53:10.280Z,30.60
2018-07-13T11:54:10.276Z,30.44
2018-07-13T11:55:10.281Z,30.38
2018-07-13T11:56:10.301Z,29.95
2018-07-13T11:57:10.292Z,29.58
2018-07-13T11:58:10.293Z,29.78
2018-07-13T11:59:10.299Z,29.91
2018-07-13T12:00:10.319Z,29.91
2018-07-13T12:01:10.324Z,30.04
2018-07-13T12:02:10.319Z,30.08
2018-07-13T12:03:10.333Z,30.08
2018-07-13T12:04:10.322Z,30.29
2018-07-13T12:05:10.327Z,30.40
2018-07-13T12:06:10.336Z,30.26
2018-07-13T12:07:10.337Z,30.38
2018-07-13T12:08:10.341Z,30.56
2018-07-13T12:09:10.348Z,30.57
2018-07-13T12:10:10.351Z,30.59
2018-07-13T12:11:10.362Z,30.64
2018-07-13T12:12:10.362Z,30.53
2018-07-13T12:13:10.364Z,30.44
2018-07-13T12:14:10.375Z,30.44
2018-07-13T12:15:10.375Z,30.57
2018-07-13T12:16:10.385Z,30.46
2018-07-13T12:17:10.392Z,30.18
2018-07-13T12:18:10.397Z,30.30
2018-07-13T12:19:10.400Z,30.42
2018-07-13T12:20:10.403Z,30.56
2018-07-13T12:21:10.413Z,30.68
2018-07-13T12:22:10.421Z,30.82
2018-07-13T12:23:10.469Z,30.86
2018-07-13T12:24:10.416Z,30.83
2018-07-13T12:25:10.425Z,31.01
2018-07-13T12:26:10.428Z,30.94
2018-07-13T12:27:10.439Z,30.91
2018-07-13T12:28:10.435Z,30.98
2018-07-13T12:29:10.440Z,31.09
2018-07-13T12:30:10.454Z,31.18
2018-07-13T12:31:10.458Z,31.10
2018-07-13T12:32:10.460Z,30.73
2018-07-13T12:33:10.465Z,30.54
2018-07-13T12:34:10.464Z,29.81
2018-07-13T12:35:10.489Z,29.85
2018-07-13T12:36:10.475Z,29.91
2018-07-13T12:37:10.484Z,29.94
2018-07-13T12:38:10.491Z,29.71
2018-07-13T12:39:10.498Z,29.78
2018-07-13T12:40:10.494Z,29.86
2018-07-13T12:41:10.506Z,29.97
2018-07-13T12:42:10.501Z,30.13
2018-07-13T12:43:10.506Z,30.21
2018-07-13T12:44:10.517Z,30.29
2018-07-13T12:45:10.518Z,30.42
2018-07-13T12:46:10.543Z,30.45
2018-07-13T12:47:10.524Z,30.46
2018-07-13T12:48:10.536Z,30.61
2018-07-13T12:49:10.607Z,30.54
2018-07-13T12:50:10.547Z,30.59
2018-07-13T12:51:10.552Z,30.73
2018-07-13T12:52:10.546Z,30.88